TimeCST,TemperatureF,Dew PointF,Humidity,Sea Level PressureIn,VisibilityMPH,Wind Direction,Wind SpeedMPH,Gust SpeedMPH,PrecipitationIn,Events,Conditions,WindDirDegrees,DateUTC
12:15 AM,48.2,37.4,66,30.18,10.0,NNE,5.8,-,N/A,,Clear,20,2013-01-26 06:15:00
12:35 AM,46.4,37.4,71,30.18,10.0,NNE,4.6,-,N/A,,Clear,30,2013-01-26 06:35:00
12:55 AM,46.4,37.4,71,30.17,10.0,NNE,4.6,-,N/A,,Clear,20,2013-01-26 06:55:00
1:15 AM,46.4,35.6,66,30.18,10.0,NNE,4.6,-,N/A,,Clear,20,2013-01-26 07:15:00
1:35 AM,46.4,35.6,66,30.17,10.0,NNE,5.8,-,N/A,,Clear,20,2013-01-26 07:35:00
1:55 AM,44.6,35.6,71,30.17,10.0,NNE,5.8,-,N/A,,Clear,20,2013-01-26 07:55:00
2:15 AM,44.6,35.6,71,30.17,10.0,NNE,5.8,-,N/A,,Clear,20,2013-01-26 08:15:00
2:35 AM,44.6,35.6,71,30.16,10.0,NNE,5.8,-,N/A,,Clear,20,2013-01-26 08:35:00
2:55 AM,44.6,35.6,71,30.16,10.0,NNE,4.6,-,N/A,,Clear,20,2013-01-26 08:55:00
3:15 AM,44.6,35.6,71,30.15,10.0,NNE,5.8,-,N/A,,Clear,20,2013-01-26 09:15:00
3:35 AM,44.6,35.6,71,30.15,10.0,NNE,3.5,-,N/A,,Clear,30,2013-01-26 09:35:00
3:55 AM,44.6,35.6,71,30.14,10.0,NNE,3.5,-,N/A,,Clear,20,2013-01-26 09:55:00
4:15 AM,44.6,35.6,71,30.15,10.0,NNE,4.6,-,N/A,,Clear,30,2013-01-26 10:15:00
4:35 AM,44.6,35.6,71,30.15,10.0,NNE,4.6,-,N/A,,Clear,20,2013-01-26 10:35:00
4:55 AM,42.8,35.6,76,30.15,10.0,NNE,6.9,-,N/A,,Clear,30,2013-01-26 10:55:00
5:15 AM,42.8,35.6,76,30.15,10.0,NNE,5.8,-,N/A,,Clear,30,2013-01-26 11:15:00
5:35 AM,42.8,35.6,76,30.14,10.0,NNE,4.6,-,N/A,,Clear,20,2013-01-26 11:35:00
5:55 AM,42.8,35.6,76,30.14,10.0,NE,3.5,-,N/A,,Clear,40,2013-01-26 11:55:00
6:15 AM,42.8,35.6,76,30.14,10.0,NE,4.6,-,N/A,,Clear,40,2013-01-26 12:15:00
6:35 AM,42.8,35.6,76,30.14,10.0,NNE,4.6,-,N/A,,Clear,30,2013-01-26 12:35:00
7:15 AM,42.8,35.6,76,30.15,10.0,NNE,4.6,-,N/A,,Clear,20,2013-01-26 13:15:00
7:35 AM,42.8,35.6,76,30.16,10.0,NNE,3.5,-,N/A,,Clear,20,2013-01-26 13:35:00
7:55 AM,42.8,35.6,76,30.16,10.0,North,4.6,-,N/A,,Clear,10,2013-01-26 13:55:00
8:15 AM,42.8,35.6,76,30.16,10.0,North,4.6,-,N/A,,Clear,10,2013-01-26 14:15:00
8:35 AM,42.8,35.6,76,30.16,10.0,North,3.5,-,N/A,,Clear,10,2013-01-26 14:35:00
8:55 AM,42.8,35.6,76,30.16,10.0,Calm,Calm,-,N/A,,Scattered Clouds,0,2013-01-26 14:55:00
9:15 AM,44.6,37.4,76,30.16,10.0,ENE,3.5,-,N/A,,Overcast,60,2013-01-26 15:15:00
9:35 AM,46.4,41.0,81,30.16,10.0,East,3.5,-,N/A,,Overcast,90,2013-01-26 15:35:00
9:55 AM,48.2,42.8,82,30.16,10.0,Calm,Calm,-,N/A,,Overcast,0,2013-01-26 15:55:00
10:15 AM,50.0,44.6,82,30.16,10.0,ESE,4.6,-,N/A,,Overcast,120,2013-01-26 16:15:00
10:35 AM,51.8,48.2,88,30.16,5.0,SSE,6.9,-,N/A,,Overcast,150,2013-01-26 16:35:00
10:55 AM,53.6,50.0,88,30.15,7.0,SE,5.8,-,N/A,,Overcast,140,2013-01-26 16:55:00
11:15 AM,55.4,51.8,88,30.15,7.0,SE,4.6,-,N/A,,Overcast,130,2013-01-26 17:15:00
11:35 AM,55.4,53.6,94,30.16,7.0,SSE,5.8,-,N/A,,Overcast,160,2013-01-26 17:35:00
11:55 AM,59.0,53.6,82,30.15,10.0,South,5.8,-,N/A,,Mostly Cloudy,180,2013-01-26 17:55:00
12:15 PM,60.8,53.6,77,30.14,10.0,South,8.1,-,N/A,,Scattered Clouds,190,2013-01-26 18:15:00
12:35 PM,62.6,53.6,72,30.13,10.0,South,6.9,-,N/A,,Clear,190,2013-01-26 18:35:00
12:55 PM,64.4,53.6,68,30.11,10.0,SSW,9.2,-,N/A,,Clear,200,2013-01-26 18:55:00
1:15 PM,68.0,55.4,64,30.10,10.0,South,10.4,-,N/A,,Clear,180,2013-01-26 19:15:00
1:35 PM,69.8,55.4,60,30.09,10.0,SSW,9.2,17.3,N/A,,Clear,200,2013-01-26 19:35:00
1:55 PM,69.8,55.4,60,30.08,10.0,South,17.3,-,N/A,,Clear,190,2013-01-26 19:55:00
2:15 PM,69.8,55.4,60,30.07,10.0,South,13.8,-,N/A,,Clear,190,2013-01-26 20:15:00
2:35 PM,69.8,55.4,60,30.06,10.0,South,13.8,-,N/A,,Clear,180,2013-01-26 20:35:00
2:55 PM,71.6,55.4,57,30.05,10.0,South,15.0,-,N/A,,Clear,190,2013-01-26 20:55:00
3:15 PM,71.6,55.4,57,30.04,10.0,South,11.5,-,N/A,,Clear,180,2013-01-26 21:15:00
3:35 PM,71.6,55.4,57,30.03,10.0,South,11.5,-,N/A,,Clear,170,2013-01-26 21:35:00
3:55 PM,71.6,55.4,57,30.03,10.0,South,12.7,18.4,N/A,,Clear,170,2013-01-26 21:55:00
4:15 PM,69.8,55.4,60,30.03,10.0,South,10.4,-,N/A,,Clear,180,2013-01-26 22:15:00
4:35 PM,71.6,55.4,57,30.03,10.0,South,11.5,-,N/A,,Clear,190,2013-01-26 22:35:00
4:55 PM,71.6,55.4,57,30.03,10.0,South,13.8,19.6,N/A,,Clear,190,2013-01-26 22:55:00
5:15 PM,71.6,55.4,57,30.03,10.0,South,13.8,-,N/A,,Clear,180,2013-01-26 23:15:00
5:35 PM,69.8,55.4,60,30.03,10.0,South,15.0,-,N/A,,Clear,180,2013-01-26 23:35:00
5:55 PM,68.0,55.4,64,30.03,10.0,South,11.5,17.3,N/A,,Clear,170,2013-01-26 23:55:00
6:15 PM,66.2,55.4,68,30.04,10.0,South,5.8,-,N/A,,Clear,190,2013-01-27 00:15:00
6:35 PM,64.4,55.4,73,30.04,10.0,South,5.8,-,N/A,,Clear,180,2013-01-27 00:35:00
6:55 PM,62.6,55.4,77,30.04,10.0,South,6.9,-,N/A,,Clear,180,2013-01-27 00:55:00
7:15 PM,62.6,55.4,77,30.04,10.0,SSE,8.1,-,N/A,,Clear,160,2013-01-27 01:15:00
7:35 PM,62.6,55.4,77,30.05,10.0,SSE,5.8,-,N/A,,Clear,160,2013-01-27 01:35:00
7:55 PM,62.6,55.4,77,30.04,10.0,SSE,6.9,-,N/A,,Clear,160,2013-01-27 01:55:00
8:15 PM,62.6,55.4,77,30.04,10.0,SSE,6.9,-,N/A,,Clear,160,2013-01-27 02:15:00
8:35 PM,62.6,55.4,77,30.05,10.0,South,6.9,-,N/A,,Clear,170,2013-01-27 02:35:00
8:55 PM,60.8,55.4,82,30.05,10.0,SSE,6.9,-,N/A,,Clear,160,2013-01-27 02:55:00
9:15 PM,60.8,55.4,82,30.04,10.0,SSE,9.2,-,N/A,,Clear,150,2013-01-27 03:15:00
9:35 PM,60.8,55.4,82,30.04,10.0,SSE,10.4,-,N/A,,Clear,160,2013-01-27 03:35:00
9:55 PM,62.6,55.4,77,30.04,10.0,South,5.8,-,N/A,,Clear,180,2013-01-27 03:55:00
10:15 PM,60.8,55.4,82,30.05,10.0,South,5.8,-,N/A,,Clear,180,2013-01-27 04:15:00
10:35 PM,60.8,55.4,82,30.06,10.0,South,4.6,-,N/A,,Clear,190,2013-01-27 04:35:00
10:55 PM,60.8,55.4,82,30.06,10.0,South,5.8,-,N/A,,Clear,180,2013-01-27 04:55:00
11:15 PM,60.8,55.4,82,30.06,10.0,South,4.6,-,N/A,,Clear,170,2013-01-27 05:15:00
11:35 PM,60.8,55.4,82,30.05,10.0,South,5.8,-,N/A,,Clear,170,2013-01-27 05:35:00
11:55 PM,60.8,55.4,82,30.05,10.0,SSE,5.8,-,N/A,,Clear,160,2013-01-27 05:55:00